createdAt,value
2019-02-16T00:00:46.363Z,17.99
2019-02-16T00:03:14.075Z,18.02
2019-02-16T00:05:41.842Z,18.08
2019-02-16T00:08:09.554Z,18.11
2019-02-16T00:10:37.276Z,17.99
2019-02-16T00:13:04.999Z,18.04
2019-02-16T00:15:32.782Z,18.13
2019-02-16T00:18:00.531Z,18.14
2019-02-16T00:20:28.294Z,18.04
2019-02-16T00:22:56.058Z,18.00
2019-02-16T00:25:23.839Z,18.01
2019-02-16T00:27:51.587Z,18.04
2019-02-16T00:30:19.326Z,18.08
2019-02-16T00:32:47.134Z,18.06
2019-02-16T00:35:14.857Z,18.07
2019-02-16T00:37:42.579Z,18.05
2019-02-16T00:40:16.914Z,18.05
2019-02-16T00:42:44.626Z,17.99
2019-02-16T00:45:12.367Z,17.99
2019-02-16T00:47:40.109Z,17.96
2019-02-16T00:50:07.914Z,17.90
2019-02-16T00:52:35.658Z,17.69
2019-02-16T00:55:03.366Z,17.83
2019-02-16T00:57:31.095Z,17.76
2019-02-16T00:59:58.854Z,17.68
2019-02-16T01:02:26.565Z,17.56
2019-02-16T01:04:54.339Z,17.58
2019-02-16T01:07:22.078Z,17.62
2019-02-16T01:09:49.786Z,17.57
2019-02-16T01:12:17.522Z,17.68
2019-02-16T01:14:45.263Z,17.65
2019-02-16T01:17:13.053Z,17.66
2019-02-16T01:20:00.243Z,17.70
2019-02-16T01:22:28.094Z,17.65
2019-02-16T01:24:55.811Z,17.72
2019-02-16T01:27:23.732Z,17.64
2019-02-16T01:29:52.182Z,17.67
2019-02-16T01:32:20.219Z,17.67
2019-02-16T01:34:48.135Z,17.67
2019-02-16T01:37:16.477Z,17.61
2019-02-16T01:39:44.396Z,17.64
2019-02-16T01:42:12.289Z,17.65
2019-02-16T01:44:40.635Z,17.64
2019-02-16T01:47:08.458Z,17.44
2019-02-16T01:49:36.380Z,17.62
2019-02-16T01:52:04.265Z,17.56
2019-02-16T01:54:32.251Z,17.55
2019-02-16T01:57:00.078Z,17.60
2019-02-16T01:59:27.901Z,17.58
2019-02-16T02:01:55.731Z,17.48
2019-02-16T02:04:23.565Z,17.45
2019-02-16T02:06:51.413Z,17.53
2019-02-16T02:09:19.265Z,17.55
2019-02-16T02:11:47.143Z,17.45
2019-02-16T02:14:15.043Z,17.55
2019-02-16T02:16:42.900Z,17.38
2019-02-16T02:19:10.742Z,17.56
2019-02-16T02:21:41.244Z,17.49
2019-02-16T02:24:08.148Z,17.54
2019-02-16T02:26:35.933Z,17.49
2019-02-16T02:29:03.793Z,17.36
2019-02-16T02:31:31.690Z,17.37
2019-02-16T02:33:59.588Z,17.35
2019-02-16T02:36:27.472Z,17.24
2019-02-16T02:38:55.479Z,17.27
2019-02-16T02:41:23.362Z,17.24
2019-02-16T02:43:51.292Z,17.15
2019-02-16T02:46:20.166Z,17.22
2019-02-16T02:48:48.037Z,17.21
2019-02-16T02:51:16.194Z,17.21
2019-02-16T02:53:44.090Z,17.23
2019-02-16T02:56:11.890Z,17.24
2019-02-16T02:58:39.800Z,17.18
2019-02-16T03:01:07.657Z,17.24
2019-02-16T03:03:35.686Z,17.39
2019-02-16T03:06:03.482Z,17.26
2019-02-16T03:08:31.264Z,17.10
2019-02-16T03:10:59.585Z,17.28
2019-02-16T03:13:27.779Z,17.24
2019-02-16T03:15:55.686Z,17.22
2019-02-16T03:18:23.544Z,17.11
2019-02-16T03:20:51.510Z,17.12
2019-02-16T03:23:20.970Z,17.04
2019-02-16T03:26:00.419Z,17.02
2019-02-16T03:28:36.088Z,17.03
2019-02-16T03:31:41.691Z,17.00
2019-02-16T03:34:12.496Z,16.91
2019-02-16T03:37:02.889Z,16.91
2019-02-16T03:39:36.155Z,16.89
2019-02-16T03:42:04.027Z,16.99
2019-02-16T03:44:31.831Z,16.93
2019-02-16T03:46:59.676Z,16.97
2019-02-16T03:49:27.656Z,16.80
2019-02-16T03:51:55.411Z,16.84
2019-02-16T03:54:23.233Z,16.95
2019-02-16T03:56:51.068Z,16.71
2019-02-16T03:59:19.042Z,16.84
2019-02-16T04:01:47.243Z,16.85
2019-02-16T04:04:15.132Z,16.92
2019-02-16T04:06:43.451Z,16.90
2019-02-16T04:09:11.393Z,16.95
2019-02-16T04:11:39.223Z,17.02
2019-02-16T04:14:07.096Z,16.94
2019-02-16T04:16:34.957Z,16.91
2019-02-16T04:19:02.843Z,16.21
2019-02-16T04:21:30.763Z,16.91
2019-02-16T04:23:58.776Z,16.95
2019-02-16T04:26:26.734Z,16.76
2019-02-16T04:28:54.657Z,16.87
2019-02-16T04:31:22.515Z,16.76
2019-02-16T04:33:50.368Z,16.82
2019-02-16T04:36:18.243Z,16.84
2019-02-16T04:38:46.342Z,16.87
2019-02-16T04:41:14.173Z,16.90
2019-02-16T04:43:42.015Z,16.76
2019-02-16T04:46:10.016Z,16.75
2019-02-16T04:48:37.940Z,16.85
2019-02-16T04:51:05.834Z,16.71
2019-02-16T04:53:33.788Z,16.72
2019-02-16T04:56:01.849Z,16.76
2019-02-16T04:58:29.650Z,16.75
2019-02-16T05:00:57.444Z,16.71
2019-02-16T05:03:25.371Z,16.73
2019-02-16T05:05:53.253Z,16.73
2019-02-16T05:08:21.042Z,16.79
2019-02-16T05:10:49.027Z,16.69
2019-02-16T05:13:16.984Z,16.64
2019-02-16T05:15:44.849Z,16.58
2019-02-16T05:18:12.696Z,16.68
2019-02-16T05:20:40.601Z,16.49
2019-02-16T05:23:08.504Z,16.52
2019-02-16T05:25:36.283Z,16.53
2019-02-16T05:28:04.156Z,16.48
2019-02-16T05:30:32.032Z,16.52
2019-02-16T05:33:00.035Z,16.34
2019-02-16T05:35:28.329Z,16.38
2019-02-16T05:37:56.124Z,16.31
2019-02-16T05:40:24.186Z,16.48
2019-02-16T05:42:52.259Z,16.29
2019-02-16T05:45:20.160Z,16.37
2019-02-16T05:47:48.099Z,16.27
2019-02-16T05:50:15.973Z,16.34
2019-02-16T05:52:43.761Z,16.30
2019-02-16T05:55:11.643Z,16.21
2019-02-16T05:57:39.598Z,16.21
2019-02-16T06:00:08.405Z,16.28
2019-02-16T06:02:36.300Z,16.33
2019-02-16T06:05:04.409Z,16.41
2019-02-16T06:07:32.208Z,16.25
2019-02-16T06:10:00.315Z,16.32
2019-02-16T06:12:28.154Z,16.33
2019-02-16T06:14:56.009Z,16.40
2019-02-16T06:17:23.855Z,16.15
2019-02-16T06:19:52.049Z,16.17
2019-02-16T06:22:19.935Z,15.97
2019-02-16T06:24:47.733Z,16.10
2019-02-16T06:27:15.600Z,16.37
2019-02-16T06:29:43.454Z,16.30
2019-02-16T06:32:11.269Z,16.37
2019-02-16T06:34:39.169Z,16.32
2019-02-16T06:37:21.194Z,16.28
2019-02-16T06:39:50.222Z,16.23
2019-02-16T06:42:18.268Z,16.30
2019-02-16T06:44:46.263Z,16.32
2019-02-16T06:47:14.033Z,16.41
2019-02-16T06:50:18.220Z,16.33
2019-02-16T06:52:46.021Z,16.45
2019-02-16T06:58:29.131Z,16.23
2019-02-16T07:04:55.080Z,16.14
2019-02-16T07:07:22.982Z,16.10
2019-02-16T07:09:50.893Z,16.01
2019-02-16T07:12:19.003Z,16.07
2019-02-16T07:15:25.810Z,16.11
2019-02-16T07:18:12.692Z,15.34
2019-02-16T07:20:40.738Z,16.11
2019-02-16T07:23:08.538Z,16.11
2019-02-16T07:25:36.651Z,16.08
2019-02-16T07:28:24.358Z,16.27
2019-02-16T07:31:02.900Z,16.16
2019-02-16T07:33:30.811Z,15.83
2019-02-16T07:35:58.960Z,15.76
2019-02-16T07:38:26.940Z,15.76
2019-02-16T07:40:54.838Z,15.71
2019-02-16T07:43:54.024Z,15.73
2019-02-16T07:46:39.587Z,15.87
2019-02-16T07:49:32.935Z,15.90
2019-02-16T07:52:22.589Z,15.88
2019-02-16T07:55:16.957Z,15.88
2019-02-16T07:57:56.097Z,15.98
2019-02-16T08:00:44.520Z,15.87
2019-02-16T08:03:16.638Z,15.90
2019-02-16T08:06:05.357Z,15.76
2019-02-16T08:09:05.269Z,15.63
2019-02-16T08:11:42.665Z,15.75
2019-02-16T08:14:24.046Z,15.71
2019-02-16T08:16:57.920Z,15.74
2019-02-16T08:19:52.944Z,15.56
2019-02-16T08:22:27.574Z,15.76
2019-02-16T08:25:13.270Z,15.94
2019-02-16T08:27:59.107Z,15.72
2019-02-16T08:30:45.994Z,15.73
2019-02-16T08:33:32.860Z,15.85
2019-02-16T08:36:26.258Z,15.88
2019-02-16T08:39:13.241Z,15.72
2019-02-16T08:41:55.335Z,15.72
2019-02-16T08:44:40.900Z,15.78
2019-02-16T08:47:26.624Z,15.87
2019-02-16T08:50:09.788Z,15.78
2019-02-16T08:53:02.461Z,16.01
2019-02-16T08:55:52.329Z,15.98
2019-02-16T08:58:36.566Z,15.94
2019-02-16T09:01:29.692Z,16.04
2019-02-16T09:04:16.574Z,16.03
2019-02-16T09:07:10.912Z,16.12
2019-02-16T09:09:57.819Z,16.03
2019-02-16T09:12:32.097Z,16.12
2019-02-16T09:15:17.580Z,16.16
2019-02-16T09:17:57.332Z,16.07
2019-02-16T09:20:44.011Z,16.10
2019-02-16T09:23:25.349Z,16.23
2019-02-16T09:26:21.653Z,16.24
2019-02-16T09:28:56.396Z,16.39
2019-02-16T09:31:49.157Z,15.96
2019-02-16T09:34:23.440Z,16.32
2019-02-16T09:37:25.916Z,16.16
2019-02-16T09:40:06.352Z,16.25
2019-02-16T09:42:43.547Z,16.24
2019-02-16T09:45:33.448Z,16.35
2019-02-16T09:48:28.168Z,16.40
2019-02-16T09:51:19.905Z,16.43
2019-02-16T09:54:08.443Z,16.47
2019-02-16T10:00:00.191Z,16.57
2019-02-16T10:02:44.058Z,16.66
2019-02-16T10:05:29.478Z,16.58
2019-02-16T10:08:22.259Z,16.53
2019-02-16T10:11:11.834Z,16.61
2019-02-16T10:13:59.949Z,16.66
2019-02-16T10:16:49.089Z,16.74
2019-02-16T10:19:25.077Z,16.68
2019-02-16T10:22:15.051Z,16.71
2019-02-16T10:25:11.539Z,16.77
2019-02-16T10:27:58.528Z,16.75
2019-02-16T10:30:52.918Z,16.83
2019-02-16T10:33:38.689Z,16.85
2019-02-16T10:36:34.646Z,16.91
2019-02-16T10:39:21.536Z,16.89
2019-02-16T10:42:14.668Z,16.96
2019-02-16T10:44:56.888Z,16.97
2019-02-16T10:47:49.745Z,17.02
2019-02-16T10:50:28.241Z,17.04
2019-02-16T10:53:14.205Z,17.13
2019-02-16T10:56:07.076Z,17.10
2019-02-16T10:58:51.189Z,17.11
2019-02-16T11:01:38.114Z,17.19
2019-02-16T11:04:37.629Z,17.22
2019-02-16T11:07:12.684Z,17.29
2019-02-16T11:10:01.822Z,17.34
2019-02-16T11:12:48.723Z,17.35
2019-02-16T11:15:41.616Z,17.42
2019-02-16T11:18:27.406Z,17.49
2019-02-16T11:21:10.044Z,17.44
2019-02-16T11:24:14.780Z,17.49
2019-02-16T11:27:01.544Z,17.47
2019-02-16T11:30:03.808Z,17.50
2019-02-16T11:32:49.260Z,17.59
2019-02-16T11:35:40.329Z,17.61
2019-02-16T11:38:25.824Z,17.75
2019-02-16T11:41:31.275Z,17.60
2019-02-16T11:44:10.850Z,17.68
2019-02-16T11:46:51.696Z,17.77
2019-02-16T11:49:28.920Z,17.83
2019-02-16T11:52:14.793Z,17.80
2019-02-16T11:54:55.771Z,17.90
2019-02-16T11:57:48.571Z,17.88
2019-02-16T12:00:50.823Z,17.86
2019-02-16T12:03:27.639Z,17.94
2019-02-16T12:06:13.294Z,17.99
2019-02-16T12:09:16.455Z,18.03
2019-02-16T12:11:54.308Z,18.03
2019-02-16T12:14:40.070Z,18.09
2019-02-16T12:17:24.977Z,18.12
2019-02-16T12:20:01.337Z,18.11
2019-02-16T12:22:50.320Z,18.18
2019-02-16T12:25:24.331Z,18.24
2019-02-16T12:28:23.399Z,18.24
2019-02-16T12:31:02.922Z,18.26
2019-02-16T12:34:05.194Z,18.32
2019-02-16T12:36:51.993Z,18.33
2019-02-16T12:39:28.106Z,18.39
2019-02-16T12:42:13.799Z,18.41
2019-02-16T12:45:08.687Z,17.97
2019-02-16T12:47:46.148Z,18.53
2019-02-16T12:50:39.027Z,18.56
2019-02-16T12:53:35.139Z,18.57
2019-02-16T12:56:11.776Z,18.56
2019-02-16T12:58:47.768Z,18.65
2019-02-16T13:01:33.248Z,18.65
2019-02-16T13:04:20.147Z,18.67
2019-02-16T13:06:55.692Z,18.72
2019-02-16T13:09:30.231Z,18.72
2019-02-16T13:12:18.688Z,18.77
2019-02-16T13:14:57.977Z,18.81
2019-02-16T13:17:45.484Z,18.83
2019-02-16T13:20:41.560Z,18.87
2019-02-16T13:23:28.604Z,18.86
2019-02-16T13:26:14.354Z,18.93
2019-02-16T13:29:01.793Z,18.97
2019-02-16T13:31:39.152Z,19.00
2019-02-16T13:34:17.240Z,19.00
2019-02-16T13:36:54.643Z,19.08
2019-02-16T13:39:37.204Z,19.10
2019-02-16T13:42:16.175Z,19.11
2019-02-16T13:45:00.730Z,19.13
2019-02-16T13:47:32.927Z,19.17
2019-02-16T13:50:31.979Z,19.20
2019-02-16T13:53:05.624Z,19.21
2019-02-16T13:55:59.773Z,19.23
2019-02-16T13:58:58.638Z,19.30
2019-02-16T14:01:46.874Z,19.31
2019-02-16T14:04:34.324Z,19.32
2019-02-16T14:07:14.098Z,19.27
2019-02-16T14:09:49.978Z,19.38
2019-02-16T14:12:28.164Z,19.44
2019-02-16T14:15:16.042Z,19.52
2019-02-16T14:17:48.247Z,19.47
2019-02-16T14:20:16.232Z,19.50
2019-02-16T14:22:47.592Z,19.55
2019-02-16T14:25:26.000Z,19.51
2019-02-16T14:27:53.904Z,19.52
2019-02-16T14:30:21.690Z,19.55
2019-02-16T14:32:49.464Z,19.52
2019-02-16T14:35:17.228Z,19.67
2019-02-16T14:37:49.760Z,19.67
2019-02-16T14:40:17.518Z,19.68
2019-02-16T14:42:45.399Z,19.61
2019-02-16T14:45:14.183Z,19.64
2019-02-16T14:47:42.576Z,19.79
2019-02-16T14:50:23.151Z,19.72
2019-02-16T14:53:03.012Z,19.69
2019-02-16T14:55:31.043Z,19.79
2019-02-16T14:57:59.259Z,19.74
2019-02-16T15:00:27.257Z,19.72
2019-02-16T15:02:55.288Z,19.89
2019-02-16T15:05:23.175Z,19.82
2019-02-16T15:07:51.317Z,19.77
2019-02-16T15:10:19.384Z,19.84
2019-02-16T15:12:47.133Z,19.80
2019-02-16T15:15:15.107Z,19.88
2019-02-16T15:17:50.257Z,19.94
2019-02-16T15:20:18.052Z,19.84
2019-02-16T15:22:45.848Z,19.96
2019-02-16T15:25:13.651Z,19.85
2019-02-16T15:27:41.480Z,19.99
2019-02-16T15:30:14.503Z,19.89
2019-02-16T15:32:42.719Z,20.05
2019-02-16T15:35:10.733Z,19.99
2019-02-16T15:37:39.277Z,19.99
2019-02-16T15:40:07.441Z,20.07
2019-02-16T15:42:35.394Z,20.03
2019-02-16T15:45:05.671Z,20.06
2019-02-16T15:47:33.515Z,20.00
2019-02-16T15:50:05.094Z,19.84
2019-02-16T15:52:32.818Z,19.96
2019-02-16T15:55:00.597Z,20.06
2019-02-16T15:57:28.584Z,20.14
2019-02-16T15:59:56.456Z,20.20
2019-02-16T16:02:24.248Z,20.18
2019-02-16T16:04:52.099Z,20.26
2019-02-16T16:07:19.919Z,20.24
2019-02-16T16:09:58.126Z,20.27
2019-02-16T16:12:43.217Z,20.21
2019-02-16T16:15:23.860Z,20.24
2019-02-16T16:18:03.040Z,19.99
2019-02-16T16:20:49.562Z,19.98
2019-02-16T16:23:33.267Z,20.06
2019-02-16T16:26:26.656Z,19.96
2019-02-16T16:29:13.558Z,20.10
2019-02-16T16:31:49.830Z,20.19
2019-02-16T16:34:36.579Z,20.14
2019-02-16T16:37:23.712Z,20.04
2019-02-16T16:39:59.023Z,20.14
2019-02-16T16:42:44.764Z,20.09
2019-02-16T16:45:31.700Z,20.10
2019-02-16T16:48:12.476Z,19.98
2019-02-16T16:51:17.713Z,20.08
2019-02-16T16:54:03.807Z,20.07
2019-02-16T16:56:42.405Z,19.88
2019-02-16T16:59:21.149Z,19.77
2019-02-16T17:02:34.875Z,19.70
2019-02-16T17:05:19.856Z,19.65
2019-02-16T17:08:37.326Z,19.81
2019-02-16T17:11:36.721Z,19.77
2019-02-16T17:14:40.528Z,19.74
2019-02-16T17:17:30.792Z,19.69
2019-02-16T17:20:54.359Z,19.70
2019-02-16T17:23:50.015Z,19.69
2019-02-16T17:27:10.063Z,19.62
2019-02-16T17:30:06.148Z,19.74
2019-02-16T17:33:03.311Z,19.84
2019-02-16T17:36:01.366Z,19.65
2019-02-16T17:38:59.313Z,19.70
2019-02-16T17:42:00.928Z,19.82
2019-02-16T17:44:42.251Z,19.93
2019-02-16T17:47:22.114Z,19.75
2019-02-16T17:50:58.531Z,19.71
2019-02-16T17:53:50.961Z,19.71
2019-02-16T17:56:24.166Z,19.79
2019-02-16T17:59:17.000Z,19.66
2019-02-16T18:05:28.208Z,19.81
2019-02-16T18:08:20.953Z,19.68
2019-02-16T18:11:16.631Z,19.63
2019-02-16T18:17:17.289Z,19.56
2019-02-16T18:20:41.184Z,19.66
2019-02-16T18:23:13.686Z,19.56
2019-02-16T18:26:18.858Z,19.61
2019-02-16T18:29:03.405Z,19.60
2019-02-16T18:35:23.933Z,19.58
2019-02-16T18:38:34.175Z,19.52
2019-02-16T18:41:26.997Z,18.75
2019-02-16T18:44:15.213Z,19.52
2019-02-16T18:47:20.746Z,19.44
2019-02-16T18:50:42.769Z,19.52
2019-02-16T18:56:54.580Z,19.62
2019-02-16T18:59:46.323Z,19.53
2019-02-16T19:02:39.357Z,19.57
2019-02-16T19:05:33.295Z,18.94
2019-02-16T19:08:17.537Z,19.54
2019-02-16T19:11:00.198Z,19.59
2019-02-16T19:16:45.352Z,19.39
2019-02-16T19:22:32.391Z,19.36
2019-02-16T19:29:06.413Z,19.20
2019-02-16T19:32:02.348Z,19.25
2019-02-16T19:34:57.542Z,19.15
2019-02-16T19:37:43.034Z,18.89
2019-02-16T19:40:29.885Z,19.42
2019-02-16T19:46:37.831Z,19.37
2019-02-16T19:52:55.286Z,19.22
2019-02-16T19:56:23.241Z,19.26
2019-02-16T19:59:03.325Z,19.22
2019-02-16T20:01:53.264Z,19.17
2019-02-16T20:04:41.120Z,19.16
2019-02-16T20:07:40.016Z,19.10
2019-02-16T20:10:24.079Z,19.06
2019-02-16T20:16:44.539Z,18.92
2019-02-16T20:22:41.211Z,18.97
2019-02-16T20:25:31.313Z,18.96
2019-02-16T20:28:16.992Z,18.90
2019-02-16T20:31:06.648Z,18.88
2019-02-16T20:33:52.488Z,18.88
2019-02-16T20:36:48.572Z,18.84
2019-02-16T20:39:37.988Z,18.84
2019-02-16T20:42:31.175Z,18.68
2019-02-16T20:45:17.068Z,18.81
2019-02-16T20:47:55.892Z,18.69
2019-02-16T20:50:48.543Z,18.64
2019-02-16T20:53:41.300Z,18.84
2019-02-16T20:56:31.128Z,18.72
2019-02-16T20:59:12.772Z,18.65
2019-02-16T21:01:50.662Z,18.58
2019-02-16T21:04:46.177Z,18.53
2019-02-16T21:07:31.957Z,18.59
2019-02-16T21:10:18.878Z,18.63
2019-02-16T21:12:54.942Z,18.77
2019-02-16T21:15:28.724Z,18.60
2019-02-16T21:18:05.013Z,18.55
2019-02-16T21:20:51.909Z,18.48
2019-02-16T21:23:50.412Z,18.42
2019-02-16T21:26:36.595Z,18.49
2019-02-16T21:29:17.391Z,18.53
2019-02-16T21:32:21.653Z,18.53
2019-02-16T21:34:57.607Z,18.48
2019-02-16T21:40:51.160Z,18.46
2019-02-16T21:43:41.342Z,18.42
2019-02-16T21:46:30.233Z,18.34
2019-02-16T21:49:24.850Z,18.29
2019-02-16T21:52:19.382Z,18.39
2019-02-16T21:55:02.748Z,18.52
2019-02-16T21:57:41.436Z,18.60
2019-02-16T22:00:26.860Z,18.57
2019-02-16T22:03:01.546Z,18.58
2019-02-16T22:05:51.524Z,18.51
2019-02-16T22:08:38.461Z,18.52
2019-02-16T22:11:15.753Z,18.59
2019-02-16T22:13:45.798Z,18.58
2019-02-16T22:16:20.569Z,18.39
2019-02-16T22:18:52.702Z,18.38
2019-02-16T22:21:20.725Z,18.42
2019-02-16T22:23:48.497Z,18.49
2019-02-16T22:26:16.328Z,18.56
2019-02-16T22:28:44.240Z,18.60
2019-02-16T22:31:12.232Z,18.56
2019-02-16T22:33:40.168Z,18.49
2019-02-16T22:36:07.912Z,18.43
2019-02-16T22:38:35.809Z,18.39
2019-02-16T22:41:03.801Z,18.33
2019-02-16T22:43:31.654Z,18.53
2019-02-16T22:45:59.640Z,18.61
2019-02-16T22:48:27.457Z,18.22
2019-02-16T22:50:55.206Z,18.30
2019-02-16T22:53:30.373Z,18.43
2019-02-16T22:55:58.667Z,18.34
2019-02-16T22:58:29.311Z,18.31
2019-02-16T23:00:57.503Z,18.27
2019-02-16T23:03:25.364Z,18.20
2019-02-16T23:05:58.080Z,18.13
2019-02-16T23:08:25.921Z,18.16
2019-02-16T23:10:53.749Z,18.12
2019-02-16T23:14:26.926Z,18.27
2019-02-16T23:15:53.839Z,18.07
2019-02-16T23:18:21.633Z,18.09
2019-02-16T23:20:49.407Z,18.10
2019-02-16T23:23:17.191Z,18.04
2019-02-16T23:26:23.286Z,18.11
2019-02-16T23:28:51.044Z,17.96
2019-02-16T23:34:30.748Z,18.05
2019-02-16T23:37:25.215Z,18.06
2019-02-16T23:39:52.960Z,18.03
2019-02-16T23:42:20.742Z,18.08
2019-02-16T23:44:48.531Z,17.91
2019-02-16T23:47:16.393Z,18.04
2019-02-16T23:50:26.222Z,18.03
2019-02-16T23:52:54.048Z,18.00
2019-02-16T23:56:23.062Z,17.94
2019-02-16T23:58:51.089Z,17.94
